Time;durP1;ratioP1;P1;durP2;ratioP2;P2;SDS_P1;SDS_P2;PMS_P1;PMS_P2;Temp;Humidity;BMP_temperature;BMP_pressure;BME280_temperature;BME280_humidity;BME280_pressure;Samples;Min_cycle;Max_cycle;Signal;HPM_P1;HPM_P2
2023/12/10 00:00:18;;;;;;;;;;;;;;;3.06;73.38;100225.94;5487609;32;35140;-72
2023/12/10 00:03:20;;;;;;;;;;;;;;;3.35;70.81;100215.22;5486599;32;34297;-71
2023/12/10 00:06:23;;;;;;;;;;;;;;;3.06;71.50;100220.75;5488323;32;34789;-66
2023/12/10 00:09:26;;;;;;;;;;;;;;;2.62;74.82;100229.81;5490553;32;35583;-71
2023/12/10 00:12:28;;;;;;;;;;;;;;;3.40;70.64;100212.53;5491159;32;35470;-64
2023/12/10 00:15:31;;;;;;;;;;;;;;;3.21;70.80;100197.19;5485642;32;34838;-70
2023/12/10 00:18:33;;;;;;;;;;;;;;;3.10;71.68;100213.78;5483073;32;35651;-65
2023/12/10 00:21:35;;;;;;;;;;;;;;;2.95;72.08;100209.59;5482943;32;35400;-64
2023/12/10 00:24:38;;;;;;;;;;;;;;;3.37;71.01;100192.66;5486983;32;34931;-72
2023/12/10 00:27:40;;;;;;;;;;;;;;;3.32;70.17;100176.28;5488549;32;35199;-65
2023/12/10 00:30:42;;;;;;;;;;;;;;;3.17;71.04;100171.28;5482885;32;35078;-64
2023/12/10 00:33:44;;;;;;;;;;;;;;;3.09;71.27;100170.50;5485734;32;34250;-72
2023/12/10 00:36:47;;;;;;;;;;;;;;;2.87;71.52;100181.12;5484783;32;34451;-70
2023/12/10 00:39:49;;;;;;;;;;;;;;;3.39;71.06;100184.84;5488486;32;34600;-65
2023/12/10 00:42:51;;;;;;;;;;;;;;;3.25;70.35;100198.88;5492074;32;35372;-64
2023/12/10 00:45:54;;;;;;;;;;;;;;;3.26;70.62;100186.75;5485616;32;34682;-65
2023/12/10 00:48:56;;;;;;;;;;;;;;;3.35;71.23;100189.25;5488902;32;35379;-71
2023/12/10 00:51:58;;;;;;;;;;;;;;;3.72;69.02;100184.38;5476741;32;34472;-71
2023/12/10 00:55:00;;;;;;;;;;;;;;;3.50;69.34;100189.03;5484753;32;34976;-71
2023/12/10 00:58:03;;;;;;;;;;;;;;;3.47;69.77;100172.59;5490364;32;35120;-65
2023/12/10 01:01:05;;;;;;;;;;;;;;;3.39;70.12;100167.50;5486197;32;34743;-65
2023/12/10 01:04:07;;;;;;;;;;;;;;;3.07;70.99;100173.13;5501436;32;35287;-64
2023/12/10 01:07:11;;;;;;;;;;;;;;;3.42;70.80;100158.84;5487683;32;35044;-64
2023/12/10 01:10:13;;;;;;;;;;;;;;;3.65;69.69;100164.56;5487593;32;35374;-72
2023/12/10 01:13:15;;;;;;;;;;;;;;;3.57;69.57;100162.97;5487089;32;34902;-66
2023/12/10 01:16:17;;;;;;;;;;;;;;;3.25;70.08;100146.06;5486235;32;34149;-72
2023/12/10 01:19:19;;;;;;;;;;;;;;;3.42;70.55;100153.66;5485701;32;34389;-65
2023/12/10 01:22:22;;;;;;;;;;;;;;;3.32;70.27;100160.69;5481987;32;34776;-64
2023/12/10 01:25:24;;;;;;;;;;;;;;;3.31;70.55;100155.50;5489393;32;34556;-66
2023/12/10 01:28:26;;;;;;;;;;;;;;;3.20;70.98;100140.91;5482537;32;35423;-64
2023/12/10 01:31:33;;;;;;;;;;;;;;;3.42;70.71;100138.91;5486824;32;34341;-70
2023/12/10 01:34:35;;;;;;;;;;;;;;;3.03;72.53;100149.78;5485369;32;35021;-64
2023/12/10 01:37:38;;;;;;;;;;;;;;;3.46;71.44;100140.56;5482417;32;34543;-66
2023/12/10 01:40:40;;;;;;;;;;;;;;;3.29;70.69;100118.31;5490244;32;34368;-72
2023/12/10 01:43:42;;;;;;;;;;;;;;;3.44;71.03;100115.50;5481954;32;34269;-72
2023/12/10 01:46:45;;;;;;;;;;;;;;;3.08;71.45;100128.09;5491995;32;33898;-65
2023/12/10 01:49:47;;;;;;;;;;;;;;;3.24;71.65;100123.56;5486697;32;35223;-71
2023/12/10 01:52:50;;;;;;;;;;;;;;;3.80;69.76;100122.75;5484098;32;34850;-71
2023/12/10 01:55:52;;;;;;;;;;;;;;;3.72;70.23;100110.75;5488338;32;35274;-64
2023/12/10 01:58:54;;;;;;;;;;;;;;;3.86;68.84;100108.78;5482472;32;34660;-66
2023/12/10 02:01:56;;;;;;;;;;;;;;;3.80;69.31;100114.97;5488627;32;35177;-70
2023/12/10 02:05:00;;;;;;;;;;;;;;;3.11;72.06;100103.84;5493694;32;37206;-74
2023/12/10 02:08:03;;;;;;;;;;;;;;;3.95;69.17;100093.03;5483455;32;35071;-65
2023/12/10 02:11:05;;;;;;;;;;;;;;;3.60;68.40;100088.37;5479305;32;36642;-64
2023/12/10 02:14:07;;;;;;;;;;;;;;;3.67;69.66;100084.84;5480473;32;34829;-72
2023/12/10 02:17:10;;;;;;;;;;;;;;;3.39;69.75;100074.00;5481386;32;34314;-64
2023/12/10 02:20:12;;;;;;;;;;;;;;;3.67;69.65;100070.97;5476075;32;34840;-64
2023/12/10 02:23:33;;;;;;;;;;;;;;;3.65;69.04;100072.72;5483405;32;34467;-65
2023/12/10 02:26:35;;;;;;;;;;;;;;;2.84;71.90;100076.50;5479982;32;35354;-72
2023/12/10 02:29:37;;;;;;;;;;;;;;;2.26;76.75;100071.97;5483315;32;34848;-64
2023/12/10 02:32:40;;;;;;;;;;;;;;;3.43;71.91;100059.22;5485169;32;34898;-64
2023/12/10 02:35:42;;;;;;;;;;;;;;;3.48;71.04;100057.44;5484594;32;35156;-65
2023/12/10 02:38:45;;;;;;;;;;;;;;;3.50;70.53;100046.12;5495629;32;34594;-66
2023/12/10 02:41:47;;;;;;;;;;;;;;;3.06;73.48;100044.16;5475823;32;34710;-74
2023/12/10 02:44:49;;;;;;;;;;;;;;;3.69;69.69;100038.88;5495124;32;34840;-64
2023/12/10 02:47:52;;;;;;;;;;;;;;;3.50;69.90;100027.06;5483589;32;35165;-72
2023/12/10 02:50:55;;;;;;;;;;;;;;;3.61;70.09;100011.31;5489126;32;34665;-64
2023/12/10 02:53:57;;;;;;;;;;;;;;;3.58;70.04;100019.13;5493957;32;34187;-72
2023/12/10 02:56:59;;;;;;;;;;;;;;;2.82;72.83;100028.91;5480916;32;35121;-66
2023/12/10 03:00:02;;;;;;;;;;;;;;;3.63;71.07;100033.78;5497504;32;35270;-66
2023/12/10 03:03:04;;;;;;;;;;;;;;;3.78;69.76;100012.72;5485870;32;34386;-65
2023/12/10 03:06:07;;;;;;;;;;;;;;;3.55;69.13;100004.47;5493917;32;35232;-73
2023/12/10 03:09:09;;;;;;;;;;;;;;;3.62;70.66;99980.09;5493571;32;34849;-70
2023/12/10 03:12:11;;;;;;;;;;;;;;;3.64;70.48;99978.31;5483575;32;34844;-72
2023/12/10 03:15:13;;;;;;;;;;;;;;;3.51;70.83;99985.47;5485311;32;35232;-64
2023/12/10 03:18:15;;;;;;;;;;;;;;;3.30;72.47;99993.63;5484555;32;34408;-66
2023/12/10 03:21:18;;;;;;;;;;;;;;;3.41;72.29;99994.28;5490682;32;34567;-71
2023/12/10 03:24:20;;;;;;;;;;;;;;;3.25;72.01;99988.47;5492691;32;34249;-72
2023/12/10 03:27:22;;;;;;;;;;;;;;;3.27;71.98;99991.03;5487466;32;34338;-71
2023/12/10 03:30:25;;;;;;;;;;;;;;;3.36;72.45;99992.66;5491908;32;34301;-65
2023/12/10 03:33:27;;;;;;;;;;;;;;;3.07;72.48;99993.94;5490229;32;35316;-65
2023/12/10 03:36:29;;;;;;;;;;;;;;;3.50;71.85;100001.09;5493571;32;34645;-70
2023/12/10 03:39:31;;;;;;;;;;;;;;;3.35;72.26;99996.13;5492414;32;33184;-73
2023/12/10 03:42:34;;;;;;;;;;;;;;;3.30;71.74;100004.00;5498385;32;34766;-71
2023/12/10 03:45:36;;;;;;;;;;;;;;;3.50;71.07;99985.50;5486404;32;35317;-71
2023/12/10 03:48:38;;;;;;;;;;;;;;;3.45;71.35;100002.91;5495726;32;35275;-72
2023/12/10 03:51:40;;;;;;;;;;;;;;;2.88;73.34;100011.53;5491753;32;35401;-71
2023/12/10 03:54:43;;;;;;;;;;;;;;;3.05;73.68;100010.44;5484554;32;35244;-66
2023/12/10 03:57:46;;;;;;;;;;;;;;;3.23;72.50;99998.03;5488334;32;34963;-64
2023/12/10 04:00:48;;;;;;;;;;;;;;;3.02;72.66;100011.31;5494208;32;35071;-73
2023/12/10 04:03:50;;;;;;;;;;;;;;;3.64;71.67;100001.69;5492030;32;35467;-71
2023/12/10 04:06:53;;;;;;;;;;;;;;;3.57;70.80;100007.03;5486122;32;34608;-65
2023/12/10 04:09:57;;;;;;;;;;;;;;;3.59;70.92;99998.31;5497380;32;34239;-71
2023/12/10 04:12:59;;;;;;;;;;;;;;;3.23;72.45;100004.97;5482739;32;34740;-73
2023/12/10 04:16:01;;;;;;;;;;;;;;;3.79;71.13;100000.56;5479288;32;34163;-71
2023/12/10 04:19:03;;;;;;;;;;;;;;;3.40;71.80;100005.56;5483307;32;34279;-65
2023/12/10 04:22:06;;;;;;;;;;;;;;;3.92;70.47;99998.63;5479568;32;34277;-64
2023/12/10 04:25:08;;;;;;;;;;;;;;;4.07;69.50;99990.56;5485600;32;35304;-72
2023/12/10 04:28:10;;;;;;;;;;;;;;;4.02;69.31;99984.56;5487901;32;34627;-72
2023/12/10 04:31:12;;;;;;;;;;;;;;;3.74;70.62;99987.69;5485151;32;35317;-65
2023/12/10 04:34:15;;;;;;;;;;;;;;;3.78;70.28;99989.31;5481168;32;35619;-65
2023/12/10 04:37:18;;;;;;;;;;;;;;;4.06;69.75;99970.63;5480918;32;34085;-71
2023/12/10 04:40:21;;;;;;;;;;;;;;;3.36;73.56;99977.06;5494325;32;34184;-65
2023/12/10 04:43:23;;;;;;;;;;;;;;;3.96;70.61;99979.47;5484802;32;34849;-72
2023/12/10 04:46:26;;;;;;;;;;;;;;;4.02;69.39;99979.38;5489688;32;35636;-72
2023/12/10 04:49:28;;;;;;;;;;;;;;;3.51;70.86;99988.06;5472780;32;34187;-66
2023/12/10 04:52:30;;;;;;;;;;;;;;;3.87;70.55;99974.47;5484411;32;35359;-71
2023/12/10 04:55:32;;;;;;;;;;;;;;;3.72;71.39;99984.22;5487369;32;34658;-71
2023/12/10 04:58:35;;;;;;;;;;;;;;;3.87;70.55;99990.06;5468960;32;34602;-73
2023/12/10 05:01:37;;;;;;;;;;;;;;;2.88;73.70;99993.34;5492461;32;35247;-72
2023/12/10 05:04:39;;;;;;;;;;;;;;;3.35;74.38;99990.91;5485696;32;35552;-71
2023/12/10 05:07:42;;;;;;;;;;;;;;;3.77;71.03;99987.59;5487467;32;34917;-65
2023/12/10 05:10:44;;;;;;;;;;;;;;;3.83;71.30;99983.19;5484663;32;34671;-71
2023/12/10 05:13:46;;;;;;;;;;;;;;;3.48;73.15;99993.31;5503526;32;35430;-72
2023/12/10 05:16:48;;;;;;;;;;;;;;;3.03;74.92;99996.59;5497620;32;35402;-65
2023/12/10 05:19:51;;;;;;;;;;;;;;;3.38;72.05;99996.09;5497297;32;34916;-72
2023/12/10 05:22:53;;;;;;;;;;;;;;;3.76;72.93;99980.69;5503933;32;35365;-66
2023/12/10 05:25:55;;;;;;;;;;;;;;;3.85;72.39;99976.22;5479764;32;34504;-66
2023/12/10 05:28:57;;;;;;;;;;;;;;;3.74;72.28;99974.69;5504455;32;34696;-71
2023/12/10 05:31:59;;;;;;;;;;;;;;;4.01;70.84;99972.47;5473363;32;34988;-64
2023/12/10 05:35:02;;;;;;;;;;;;;;;3.78;72.06;99988.47;5494897;32;35415;-73
2023/12/10 05:38:07;;;;;;;;;;;;;;;3.71;71.54;99985.13;5486140;32;35416;-66
2023/12/10 05:41:10;;;;;;;;;;;;;;;4.06;70.44;99973.25;5481968;32;35299;-71
2023/12/10 05:44:12;;;;;;;;;;;;;;;3.84;70.99;99979.69;5493724;32;34914;-71
2023/12/10 05:47:14;;;;;;;;;;;;;;;3.77;71.85;99991.97;5485556;32;34916;-72
2023/12/10 05:50:16;;;;;;;;;;;;;;;3.74;70.48;99992.87;5496267;32;34507;-64
2023/12/10 05:53:18;;;;;;;;;;;;;;;3.58;71.51;99987.97;5483873;32;34548;-66
2023/12/10 05:56:20;;;;;;;;;;;;;;;3.04;74.26;99999.22;5488061;32;35677;-73
2023/12/10 05:59:22;;;;;;;;;;;;;;;3.20;74.63;99986.84;5491373;32;35227;-66
2023/12/10 06:02:24;;;;;;;;;;;;;;;3.69;72.00;99993.84;5485852;32;34398;-72
2023/12/10 06:05:27;;;;;;;;;;;;;;;2.74;75.16;100002.22;5498728;32;34513;-67
2023/12/10 06:08:29;;;;;;;;;;;;;;;3.01;74.15;99995.78;5483877;32;34202;-71
2023/12/10 06:11:31;;;;;;;;;;;;;;;3.43;73.17;100000.31;5494209;32;34505;-72
2023/12/10 06:14:33;;;;;;;;;;;;;;;3.58;72.80;99999.22;5485321;32;34899;-66
2023/12/10 06:17:35;;;;;;;;;;;;;;;3.80;71.93;100000.56;5484333;32;34311;-71
2023/12/10 06:20:37;;;;;;;;;;;;;;;3.96;70.92;99995.09;5492597;32;34455;-67
2023/12/10 06:23:39;;;;;;;;;;;;;;;2.86;75.00;100007.25;5485109;32;34273;-65
2023/12/10 06:26:41;;;;;;;;;;;;;;;3.98;71.33;99998.50;5490258;32;35445;-72
2023/12/10 06:29:44;;;;;;;;;;;;;;;3.86;70.88;100001.31;5483779;32;35184;-71
2023/12/10 06:32:46;;;;;;;;;;;;;;;3.32;72.41;100006.56;5492429;32;34993;-65
2023/12/10 06:35:48;;;;;;;;;;;;;;;3.25;72.79;100011.00;5482165;32;34718;-73
2023/12/10 06:38:50;;;;;;;;;;;;;;;3.93;70.92;100009.00;5491301;32;34849;-71
2023/12/10 06:41:52;;;;;;;;;;;;;;;3.97;70.52;100015.84;5494562;32;34854;-71
2023/12/10 06:44:55;;;;;;;;;;;;;;;3.70;70.34;100022.41;5483554;32;34677;-66
2023/12/10 06:47:57;;;;;;;;;;;;;;;3.50;71.91;100029.66;5494131;32;35272;-65
2023/12/10 06:51:01;;;;;;;;;;;;;;;3.86;71.20;100032.53;5484934;32;35689;-65
2023/12/10 06:54:03;;;;;;;;;;;;;;;4.07;71.18;100026.97;5492566;32;34166;-67
2023/12/10 06:57:05;;;;;;;;;;;;;;;3.99;69.95;100034.03;5489200;32;34189;-71
2023/12/10 07:00:08;;;;;;;;;;;;;;;4.60;67.60;100048.47;5484185;32;35561;-73
2023/12/10 07:03:10;;;;;;;;;;;;;;;3.85;69.01;100055.06;5492762;32;34598;-65
2023/12/10 07:06:12;;;;;;;;;;;;;;;4.11;69.31;100048.53;5482834;32;34215;-73
2023/12/10 07:09:14;;;;;;;;;;;;;;;4.28;67.86;100049.97;5491758;32;35593;-65
2023/12/10 07:12:16;;;;;;;;;;;;;;;4.02;68.97;100057.37;5488475;32;35471;-72
2023/12/10 07:15:19;;;;;;;;;;;;;;;4.27;67.35;100055.19;5487513;32;34895;-72
2023/12/10 07:18:21;;;;;;;;;;;;;;;4.31;67.29;100056.84;5485730;32;34609;-73
2023/12/10 07:21:23;;;;;;;;;;;;;;;3.91;68.16;100059.31;5483294;32;34866;-65
2023/12/10 07:24:26;;;;;;;;;;;;;;;4.14;68.58;100054.56;5490269;32;36325;-70
2023/12/10 07:27:28;;;;;;;;;;;;;;;4.22;68.02;100054.41;5487280;32;34923;-64
2023/12/10 07:30:30;;;;;;;;;;;;;;;4.25;67.50;100057.84;5486871;32;35514;-65
2023/12/10 07:33:32;;;;;;;;;;;;;;;3.74;69.57;100073.47;5487730;32;35102;-65
2023/12/10 07:36:34;;;;;;;;;;;;;;;3.97;69.80;100067.84;5487340;32;35012;-71
2023/12/10 07:39:40;;;;;;;;;;;;;;;3.27;71.84;100071.56;5481675;32;34747;-71
2023/12/10 07:42:43;;;;;;;;;;;;;;;3.39;71.93;100076.59;5486788;32;34797;-67
2023/12/10 07:45:45;;;;;;;;;;;;;;;3.73;70.03;100076.06;5485372;32;35012;-66
2023/12/10 07:48:47;;;;;;;;;;;;;;;3.77;71.08;100072.53;5481547;32;34530;-65
2023/12/10 07:51:50;;;;;;;;;;;;;;;4.31;69.17;100070.69;5484841;32;35482;-73
2023/12/10 07:54:52;;;;;;;;;;;;;;;3.74;70.29;100064.81;5478951;32;34980;-64
2023/12/10 07:57:55;;;;;;;;;;;;;;;4.32;69.19;100075.03;5485503;32;34861;-66
2023/12/10 08:00:57;;;;;;;;;;;;;;;3.33;72.44;100081.00;5481513;32;34353;-66
2023/12/10 08:04:00;;;;;;;;;;;;;;;3.60;73.41;100088.37;5486315;32;34786;-71
2023/12/10 08:07:02;;;;;;;;;;;;;;;4.37;69.75;100087.09;5476476;32;35400;-71
2023/12/10 08:10:05;;;;;;;;;;;;;;;3.99;70.78;100092.13;5481341;32;35687;-66
2023/12/10 08:13:07;;;;;;;;;;;;;;;3.83;71.77;100089.78;5489595;32;34964;-65
2023/12/10 08:16:09;;;;;;;;;;;;;;;4.50;69.58;100081.63;5475353;32;35389;-72
2023/12/10 08:19:11;;;;;;;;;;;;;;;4.54;68.67;100091.09;5486620;32;34453;-67
2023/12/10 08:22:14;;;;;;;;;;;;;;;3.99;70.39;100097.31;5492133;32;34265;-72
2023/12/10 08:25:16;;;;;;;;;;;;;;;4.07;69.80;100099.78;5481938;32;35534;-69
2023/12/10 08:28:19;;;;;;;;;;;;;;;4.79;67.74;100093.22;5474475;32;34731;-68
2023/12/10 08:31:21;;;;;;;;;;;;;;;3.99;70.10;100101.63;5481762;32;35565;-67
2023/12/10 08:34:23;;;;;;;;;;;;;;;4.39;68.27;100104.41;5489357;32;35277;-67
2023/12/10 08:37:25;;;;;;;;;;;;;;;4.79;67.65;100093.22;5484059;32;34186;-68
2023/12/10 08:40:28;;;;;;;;;;;;;;;4.03;69.71;100105.91;5486281;32;34125;-67
2023/12/10 08:43:30;;;;;;;;;;;;;;;3.65;71.50;100114.31;5484889;32;35047;-69
2023/12/10 08:46:32;;;;;;;;;;;;;;;4.50;68.13;100117.19;5479809;32;34599;-69
2023/12/10 08:49:35;;;;;;;;;;;;;;;4.95;66.54;100119.81;5487706;32;34826;-69
2023/12/10 08:52:37;;;;;;;;;;;;;;;4.29;68.16;100123.66;5485074;32;35488;-66
2023/12/10 08:55:39;;;;;;;;;;;;;;;4.83;67.75;100118.28;5489777;32;34840;-69
2023/12/10 08:58:41;;;;;;;;;;;;;;;4.98;66.73;100122.34;5482431;32;34857;-68
2023/12/10 09:01:44;;;;;;;;;;;;;;;4.72;67.91;100121.13;5473853;32;34468;-67
2023/12/10 09:04:46;;;;;;;;;;;;;;;4.24;68.65;100131.53;5483886;32;34905;-68
2023/12/10 09:07:48;;;;;;;;;;;;;;;4.45;68.82;100138.13;5484954;32;35094;-67
2023/12/10 09:10:50;;;;;;;;;;;;;;;4.21;68.29;100136.81;5489626;32;34695;-66
2023/12/10 09:13:52;;;;;;;;;;;;;;;4.40;68.54;100146.91;5482259;32;34862;-69
2023/12/10 09:16:55;;;;;;;;;;;;;;;3.94;69.18;100147.69;5487047;32;34843;-68
2023/12/10 09:19:57;;;;;;;;;;;;;;;4.66;66.98;100147.28;5480303;32;35474;-69
2023/12/10 09:22:59;;;;;;;;;;;;;;;4.55;67.81;100142.25;5491349;32;35525;-69
2023/12/10 09:26:02;;;;;;;;;;;;;;;4.24;67.97;100154.94;5483937;32;34423;-69
2023/12/10 09:29:04;;;;;;;;;;;;;;;3.44;72.57;100154.47;5480059;32;34767;-67
2023/12/10 09:32:06;;;;;;;;;;;;;;;4.47;71.12;100149.34;5486962;32;34228;-69
2023/12/10 09:35:09;;;;;;;;;;;;;;;4.70;68.82;100135.94;5482581;32;34382;-69
2023/12/10 09:38:11;;;;;;;;;;;;;;;5.47;66.08;100134.31;5484429;32;34760;-69
2023/12/10 09:41:13;;;;;;;;;;;;;;;5.55;64.84;100127.22;5479512;32;34365;-70
2023/12/10 09:44:15;;;;;;;;;;;;;;;5.35;65.45;100130.25;5482346;32;34995;-69
2023/12/10 09:47:17;;;;;;;;;;;;;;;5.64;63.75;100133.06;5482691;32;35014;-68
2023/12/10 09:50:20;;;;;;;;;;;;;;;5.24;64.78;100143.50;5479932;32;34158;-69
2023/12/10 09:53:22;;;;;;;;;;;;;;;5.64;63.40;100137.41;5493567;32;34814;-68
2023/12/10 09:56:24;;;;;;;;;;;;;;;4.11;67.86;100150.84;5492854;32;34971;-68
2023/12/10 09:59:26;;;;;;;;;;;;;;;5.21;66.41;100142.72;5501402;32;34904;-67
2023/12/10 10:02:32;;;;;;;;;;;;;;;4.95;66.12;100132.81;5495579;32;35948;-69
2023/12/10 10:05:34;;;;;;;;;;;;;;;5.10;66.36;100146.41;5466168;32;34191;-68
2023/12/10 10:08:36;;;;;;;;;;;;;;;4.43;67.67;100155.50;5477805;32;35182;-68
2023/12/10 10:11:39;;;;;;;;;;;;;;;5.83;63.33;100151.75;5488775;32;35711;-70
2023/12/10 10:14:52;;;;;;;;;;;;;;;5.52;62.75;100143.75;5486934;32;37695;-68
2023/12/10 10:17:55;;;;;;;;;;;;;;;4.79;65.52;100150.50;5487667;32;35155;-71
2023/12/10 10:20:58;;;;;;;;;;;;;;;5.31;66.02;100155.53;5459308;32;841499;-67
2023/12/10 10:24:00;;;;;;;;;;;;;;;6.22;62.24;100134.28;5486733;32;34915;-69
2023/12/10 10:27:02;;;;;;;;;;;;;;;5.72;63.76;100132.88;5494528;32;34721;-70
2023/12/10 10:30:05;;;;;;;;;;;;;;;5.87;62.27;100124.72;5473164;32;34979;-67
2023/12/10 10:33:07;;;;;;;;;;;;;;;5.89;63.08;100142.94;5487927;32;34286;-69
2023/12/10 10:36:09;;;;;;;;;;;;;;;5.38;65.20;100145.81;5488606;32;34990;-67
2023/12/10 10:39:11;;;;;;;;;;;;;;;6.38;61.98;100132.16;5479269;32;35450;-70
2023/12/10 10:42:14;;;;;;;;;;;;;;;6.22;61.74;100138.66;5485681;32;34309;-69
2023/12/10 10:45:16;;;;;;;;;;;;;;;5.38;64.82;100138.84;5498554;32;35269;-68
2023/12/10 10:48:19;;;;;;;;;;;;;;;6.43;60.82;100139.84;5487291;32;34306;-68
2023/12/10 10:51:24;;;;;;;;;;;;;;;5.35;64.65;100138.09;5479615;32;35046;-70
2023/12/10 10:54:27;;;;;;;;;;;;;;;5.88;62.86;100143.81;5483094;32;34437;-69
2023/12/10 10:57:29;;;;;;;;;;;;;;;4.58;67.07;100154.38;5502020;32;34314;-69
2023/12/10 11:00:32;;;;;;;;;;;;;;;4.46;67.37;100155.47;5483260;32;35162;-68
2023/12/10 11:03:34;;;;;;;;;;;;;;;4.97;66.27;100157.12;5501985;32;34210;-67
2023/12/10 11:06:37;;;;;;;;;;;;;;;4.43;68.68;100157.25;5498466;32;34471;-69
2023/12/10 11:09:55;;;;;;;;;;;;;;;5.23;65.75;100157.44;5482935;32;34479;-69
2023/12/10 11:12:59;;;;;;;;;;;;;;;3.48;72.20;100170.00;5501731;32;34471;-69
2023/12/10 11:16:01;;;;;;;;;;;;;;;4.02;71.91;100164.00;5496551;32;34597;-68
2023/12/10 11:19:04;;;;;;;;;;;;;;;3.68;73.26;100181.88;5499320;32;34869;-70
2023/12/10 11:22:07;;;;;;;;;;;;;;;4.06;72.36;100170.88;5495899;32;34858;-68
2023/12/10 11:25:10;;;;;;;;;;;;;;;3.84;73.09;100172.09;5500581;32;34376;-67
2023/12/10 11:28:17;;;;;;;;;;;;;;;4.25;71.84;100172.31;5477673;32;35514;-69
2023/12/10 11:31:19;;;;;;;;;;;;;;;4.70;70.00;100166.28;5486078;32;34680;-67
2023/12/10 11:34:21;;;;;;;;;;;;;;;5.18;67.59;100172.31;5495458;32;34700;-68
2023/12/10 11:37:24;;;;;;;;;;;;;;;5.24;67.45;100186.97;5489870;32;34953;-69
2023/12/10 11:40:26;;;;;;;;;;;;;;;4.78;67.95;100186.09;5499430;32;35044;-70
2023/12/10 11:43:28;;;;;;;;;;;;;;;4.68;68.66;100187.16;5489692;32;34640;-67
2023/12/10 11:46:30;;;;;;;;;;;;;;;5.21;67.99;100173.97;5490769;32;35263;-70
2023/12/10 11:49:45;;;;;;;;;;;;;;;4.76;69.33;100193.06;5477870;32;34411;-71
2023/12/10 11:52:48;;;;;;;;;;;;;;;5.13;67.21;100185.41;5472865;32;34291;-68
2023/12/10 11:55:51;;;;;;;;;;;;;;;5.11;66.15;100183.75;5488833;32;34639;-67
2023/12/10 11:58:53;;;;;;;;;;;;;;;4.72;68.58;100201.84;5489163;32;34909;-70
2023/12/10 12:01:56;;;;;;;;;;;;;;;4.41;69.40;100205.88;5496839;32;35443;-69
2023/12/10 12:04:58;;;;;;;;;;;;;;;5.50;66.12;100197.69;5487204;32;34441;-69
2023/12/10 12:08:00;;;;;;;;;;;;;;;4.72;68.32;100207.06;5489335;32;35600;-69
2023/12/10 12:11:03;;;;;;;;;;;;;;;4.23;67.15;100218.28;5490869;32;34360;-69
2023/12/10 12:14:05;;;;;;;;;;;;;;;3.39;73.41;100222.06;5481479;32;35362;-70
2023/12/10 12:17:07;;;;;;;;;;;;;;;3.59;71.82;100224.41;5495385;32;34986;-68
2023/12/10 12:20:18;;;;;;;;;;;;;;;4.63;69.88;100228.03;5484511;32;34226;-69
2023/12/10 12:23:20;;;;;;;;;;;;;;;4.77;67.78;100230.41;5492055;32;34327;-69
2023/12/10 12:26:23;;;;;;;;;;;;;;;3.59;71.43;100233.94;5491679;32;34948;-69
2023/12/10 12:29:25;;;;;;;;;;;;;;;4.91;68.49;100235.38;5483651;32;34894;-69
2023/12/10 12:32:27;;;;;;;;;;;;;;;4.76;69.36;100239.94;5498448;32;35359;-68
2023/12/10 12:35:36;;;;;;;;;;;;;;;4.77;68.97;100248.62;5488393;32;34694;-70
2023/12/10 12:38:38;;;;;;;;;;;;;;;3.71;70.26;100245.03;5489836;32;34005;-69
2023/12/10 12:41:40;;;;;;;;;;;;;;;4.23;69.68;100241.69;5491958;32;35248;-71
2023/12/10 12:44:42;;;;;;;;;;;;;;;4.86;67.50;100244.09;5485474;32;33942;-69
2023/12/10 12:47:44;;;;;;;;;;;;;;;4.20;69.51;100246.97;5495561;32;35606;-67
2023/12/10 12:50:47;;;;;;;;;;;;;;;3.84;71.10;100242.28;5482891;32;35351;-69
2023/12/10 12:53:49;;;;;;;;;;;;;;;3.52;73.28;100253.97;5491423;32;34923;-67
2023/12/10 12:57:11;;;;;;;;;;;;;;;3.27;73.48;100256.00;5473357;32;35903;-68
2023/12/10 13:00:16;;;;;;;;;;;;;;;3.76;73.77;100264.06;5483883;32;34900;-70
2023/12/10 13:03:18;;;;;;;;;;;;;;;4.34;69.85;100262.34;5492746;32;34906;-71
2023/12/10 13:06:21;;;;;;;;;;;;;;;4.59;69.33;100273.22;5492452;32;34432;-68
2023/12/10 13:09:23;;;;;;;;;;;;;;;4.43;68.26;100274.34;5489682;32;34353;-68
2023/12/10 13:12:25;;;;;;;;;;;;;;;4.29;69.02;100280.63;5494777;32;34762;-68
2023/12/10 13:15:27;;;;;;;;;;;;;;;4.74;69.39;100285.97;5496187;32;35446;-68
2023/12/10 13:18:30;;;;;;;;;;;;;;;4.79;68.26;100278.97;5487391;32;34842;-69
2023/12/10 13:21:32;;;;;;;;;;;;;;;3.44;71.40;100284.37;5493060;32;35026;-68
2023/12/10 13:24:35;;;;;;;;;;;;;;;4.03;71.72;100282.75;5484458;32;35079;-68
2023/12/10 13:27:37;;;;;;;;;;;;;;;3.59;70.87;100289.38;5495722;32;34636;-71
2023/12/10 13:30:39;;;;;;;;;;;;;;;4.62;69.60;100283.56;5492317;32;34923;-67
2023/12/10 13:33:42;;;;;;;;;;;;;;;4.67;68.92;100279.16;5487094;32;34728;-70
2023/12/10 13:36:45;;;;;;;;;;;;;;;4.82;68.97;100291.06;5496426;32;34906;-71
2023/12/10 13:39:47;;;;;;;;;;;;;;;5.29;67.21;100292.81;5484139;32;35149;-67
2023/12/10 13:42:49;;;;;;;;;;;;;;;5.05;67.95;100308.91;5494536;32;34901;-69
2023/12/10 13:45:51;;;;;;;;;;;;;;;4.02;69.87;100314.84;5491751;32;35354;-68
2023/12/10 13:48:53;;;;;;;;;;;;;;;4.22;70.06;100320.62;5487812;32;34731;-68
2023/12/10 13:51:56;;;;;;;;;;;;;;;4.93;67.52;100304.75;5501013;32;34275;-68
2023/12/10 13:54:58;;;;;;;;;;;;;;;4.69;68.42;100307.75;5483495;32;34248;-69
2023/12/10 13:58:01;;;;;;;;;;;;;;;4.37;69.56;100314.31;5497486;32;35108;-69
2023/12/10 14:01:03;;;;;;;;;;;;;;;4.83;67.99;100313.59;5490206;32;35146;-69
2023/12/10 14:04:05;;;;;;;;;;;;;;;3.69;70.60;100310.94;5488418;32;35038;-70
2023/12/10 14:07:08;;;;;;;;;;;;;;;4.57;69.21;100306.22;5501504;32;35246;-69
2023/12/10 14:10:10;;;;;;;;;;;;;;;4.23;69.05;100309.34;5496968;32;34365;-70
2023/12/10 14:13:12;;;;;;;;;;;;;;;4.98;68.26;100310.75;5495721;32;34953;-68
2023/12/10 14:16:15;;;;;;;;;;;;;;;5.34;66.15;100314.41;5489892;32;35277;-67
2023/12/10 14:19:17;;;;;;;;;;;;;;;4.94;66.47;100311.69;5486740;32;35752;-69
2023/12/10 14:22:19;;;;;;;;;;;;;;;5.97;64.18;100316.66;5493903;32;34771;-71
2023/12/10 14:25:21;;;;;;;;;;;;;;;5.31;64.83;100326.66;5486818;32;34820;-68
2023/12/10 14:28:24;;;;;;;;;;;;;;;5.13;66.67;100327.84;5494130;32;34949;-69
2023/12/10 14:31:26;;;;;;;;;;;;;;;5.71;64.91;100329.34;5492026;32;34542;-69
2023/12/10 14:34:28;;;;;;;;;;;;;;;5.48;64.78;100334.19;5488686;32;34378;-68
2023/12/10 14:37:31;;;;;;;;;;;;;;;4.97;67.20;100336.84;5487940;32;34965;-67
2023/12/10 14:40:33;;;;;;;;;;;;;;;4.99;66.06;100340.25;5491689;32;34882;-69
2023/12/10 14:43:35;;;;;;;;;;;;;;;4.55;68.10;100340.09;5489993;32;34249;-67
2023/12/10 14:46:37;;;;;;;;;;;;;;;5.30;66.59;100345.78;5492393;32;34986;-68
2023/12/10 14:49:40;;;;;;;;;;;;;;;5.71;65.14;100348.47;5477358;32;34609;-70
2023/12/10 14:52:42;;;;;;;;;;;;;;;4.32;68.07;100357.78;5494358;32;35324;-68
2023/12/10 14:55:44;;;;;;;;;;;;;;;5.12;67.10;100362.59;5492532;32;35210;-68
2023/12/10 14:58:46;;;;;;;;;;;;;;;5.32;66.24;100375.28;5488827;32;35157;-69
2023/12/10 15:01:48;;;;;;;;;;;;;;;5.51;65.83;100381.03;5501646;32;35934;-69
2023/12/10 15:05:07;;;;;;;;;;;;;;;5.61;64.73;100387.81;5500787;32;35400;-69
2023/12/10 15:08:09;;;;;;;;;;;;;;;4.39;68.16;100390.66;5494198;32;34186;-67
2023/12/10 15:11:11;;;;;;;;;;;;;;;5.21;66.96;100382.44;5491753;32;34809;-68
2023/12/10 15:14:13;;;;;;;;;;;;;;;5.77;64.63;100381.38;5487481;32;34472;-70
2023/12/10 15:17:15;;;;;;;;;;;;;;;5.28;65.61;100392.75;5494366;32;34327;-69
2023/12/10 15:20:18;;;;;;;;;;;;;;;4.75;67.94;100383.19;5482769;32;34391;-69
2023/12/10 15:23:20;;;;;;;;;;;;;;;5.19;65.88;100398.09;5493884;32;35527;-68
2023/12/10 15:26:22;;;;;;;;;;;;;;;5.22;65.80;100410.22;5491567;32;34774;-69
2023/12/10 15:29:25;;;;;;;;;;;;;;;5.03;65.36;100414.88;5487055;32;34888;-68
2023/12/10 15:32:27;;;;;;;;;;;;;;;4.56;67.79;100403.41;5497095;32;35603;-69
2023/12/10 15:35:29;;;;;;;;;;;;;;;4.41;69.22;100416.66;5482120;32;34467;-71
2023/12/10 15:38:32;;;;;;;;;;;;;;;4.91;67.81;100422.88;5493914;32;35412;-69
2023/12/10 15:41:34;;;;;;;;;;;;;;;5.61;65.15;100424.31;5490737;32;35350;-68
2023/12/10 15:44:36;;;;;;;;;;;;;;;5.10;66.16;100421.72;5487746;32;35352;-72
2023/12/10 15:47:38;;;;;;;;;;;;;;;5.61;65.05;100424.31;5494928;32;34872;-69
2023/12/10 15:50:40;;;;;;;;;;;;;;;5.64;64.08;100434.66;5490415;32;33914;-70